Big Moose, New York
Current Conditions -  °F | °C
As of 4:37 PM on Thursday 23 Oct 2014 (Local Time) from KGTB Reporting Station
Drizzle Drizzle  
Wind Chill:   Ceiling: 1800
Heat Index:   Visibility: 10mi
Dew Point:   Wind: 10mph
Humidity: 76%   Direction: 20°NNE
Pressure: 29.95"   Gusts: NA
Location:  43.8364°N, 74.9967°W
Report Text: KGTB 232037Z AUTO 02009KT 10SM -DZ OVC018 09/05 A2995 RMK AO2 RAB1959E2000DZE2016B2037
Loading
Personal Weather Stations






























Interactive Weather Map
Tropical Storm Tracking
New forecast layout! Learn more

10-Day Weather Forecast

Advertisements
Track Severe Weather on mobile